sensor_id;sensor_type;location;lat;lon;timestamp;P1;durP1;ratioP1;P2;durP2;ratioP2
77846;SDS011;67039;48.334;14.294;2023-01-23T15:26:35;30.80;;;20.05;;
77846;SDS011;67039;48.334;14.294;2023-01-23T15:36:45;32.42;;;20.63;;
77846;SDS011;67039;48.334;14.294;2023-01-23T15:39:18;31.75;;;20.38;;
77846;SDS011;67039;48.334;14.294;2023-01-23T15:41:47;32.63;;;19.95;;
77846;SDS011;67039;48.334;14.294;2023-01-23T15:44:14;34.72;;;19.38;;
77846;SDS011;67039;48.334;14.294;2023-01-23T15:46:40;34.53;;;21.52;;
77846;SDS011;67039;48.334;14.294;2023-01-23T15:49:07;30.27;;;19.80;;
77846;SDS011;67039;48.334;14.294;2023-01-23T15:51:33;35.10;;;20.42;;
77846;SDS011;67039;48.334;14.294;2023-01-23T15:54:11;42.22;;;24.25;;
77846;SDS011;67039;48.334;14.294;2023-01-23T15:56:39;83.93;;;53.20;;
77846;SDS011;67039;48.334;14.294;2023-01-23T15:59:12;83.10;;;46.28;;
77846;SDS011;67039;48.334;14.294;2023-01-23T16:01:40;47.15;;;27.83;;
77846;SDS011;67039;48.334;14.294;2023-01-23T16:04:06;34.88;;;19.85;;
77846;SDS011;67039;48.334;14.294;2023-01-23T16:06:31;34.17;;;20.92;;
77846;SDS011;67039;48.334;14.294;2023-01-23T16:08:57;43.45;;;27.73;;
77846;SDS011;67039;48.334;14.294;2023-01-23T16:11:23;52.03;;;27.73;;
77846;SDS011;67039;48.334;14.294;2023-01-23T16:13:51;31.60;;;19.27;;
77846;SDS011;67039;48.334;14.294;2023-01-23T16:16:17;33.53;;;19.30;;
77846;SDS011;67039;48.334;14.294;2023-01-23T16:18:43;31.10;;;18.05;;
77846;SDS011;67039;48.334;14.294;2023-01-23T16:23:43;28.77;;;18.42;;
77846;SDS011;67039;48.334;14.294;2023-01-23T16:26:15;32.40;;;19.45;;
77846;SDS011;67039;48.334;14.294;2023-01-23T16:28:45;40.20;;;23.08;;
77846;SDS011;67039;48.334;14.294;2023-01-23T16:31:13;40.90;;;24.10;;
77846;SDS011;67039;48.334;14.294;2023-01-23T16:33:44;33.50;;;21.15;;
77846;SDS011;67039;48.334;14.294;2023-01-23T16:36:11;35.20;;;21.17;;
77846;SDS011;67039;48.334;14.294;2023-01-23T16:38:39;32.50;;;19.05;;
77846;SDS011;67039;48.334;14.294;2023-01-23T16:41:07;34.40;;;19.40;;
77846;SDS011;67039;48.334;14.294;2023-01-23T16:43:33;34.25;;;19.00;;
77846;SDS011;67039;48.334;14.294;2023-01-23T16:45:59;29.63;;;18.98;;
77846;SDS011;67039;48.334;14.294;2023-01-23T16:48:26;26.40;;;18.90;;
77846;SDS011;67039;48.334;14.294;2023-01-23T16:50:53;31.00;;;19.35;;
77846;SDS011;67039;48.334;14.294;2023-01-23T16:55:47;33.15;;;20.30;;
77846;SDS011;67039;48.334;14.294;2023-01-23T16:58:16;30.67;;;19.77;;
77846;SDS011;67039;48.334;14.294;2023-01-23T17:00:44;30.83;;;19.63;;
77846;SDS011;67039;48.334;14.294;2023-01-23T17:03:15;33.92;;;20.00;;
77846;SDS011;67039;48.334;14.294;2023-01-23T17:05:44;33.15;;;20.40;;
77846;SDS011;67039;48.334;14.294;2023-01-23T17:08:18;35.63;;;20.88;;
77846;SDS011;67039;48.334;14.294;2023-01-23T17:11:00;32.30;;;18.85;;
77846;SDS011;67039;48.334;14.294;2023-01-23T17:13:27;34.15;;;20.20;;
77846;SDS011;67039;48.334;14.294;2023-01-23T17:15:56;33.95;;;20.20;;
77846;SDS011;67039;48.334;14.294;2023-01-23T17:18:24;33.05;;;20.80;;
77846;SDS011;67039;48.334;14.294;2023-01-23T17:20:51;31.27;;;18.33;;
77846;SDS011;67039;48.334;14.294;2023-01-23T17:23:20;33.60;;;19.48;;
77846;SDS011;67039;48.334;14.294;2023-01-23T17:25:46;31.20;;;21.30;;
77846;SDS011;67039;48.334;14.294;2023-01-23T17:28:14;33.60;;;20.98;;
77846;SDS011;67039;48.334;14.294;2023-01-23T17:30:40;30.65;;;19.17;;
77846;SDS011;67039;48.334;14.294;2023-01-23T17:33:16;32.22;;;20.17;;
77846;SDS011;67039;48.334;14.294;2023-01-23T17:35:42;37.38;;;21.98;;
77846;SDS011;67039;48.334;14.294;2023-01-23T17:38:12;32.88;;;20.35;;
77846;SDS011;67039;48.334;14.294;2023-01-23T17:40:40;33.83;;;20.00;;
77846;SDS011;67039;48.334;14.294;2023-01-23T17:51:14;35.47;;;21.20;;
77846;SDS011;67039;48.334;14.294;2023-01-23T17:53:40;32.40;;;20.95;;
77846;SDS011;67039;48.334;14.294;2023-01-23T17:56:09;31.30;;;19.85;;
77846;SDS011;67039;48.334;14.294;2023-01-23T17:58:35;35.33;;;22.42;;
77846;SDS011;67039;48.334;14.294;2023-01-23T18:01:03;31.40;;;19.45;;
77846;SDS011;67039;48.334;14.294;2023-01-23T18:03:30;30.73;;;19.58;;
77846;SDS011;67039;48.334;14.294;2023-01-23T18:05:56;30.55;;;19.92;;
77846;SDS011;67039;48.334;14.294;2023-01-23T18:08:22;32.75;;;19.85;;
77846;SDS011;67039;48.334;14.294;2023-01-23T18:10:52;32.42;;;20.88;;
77846;SDS011;67039;48.334;14.294;2023-01-23T18:16:13;28.42;;;19.25;;
77846;SDS011;67039;48.334;14.294;2023-01-23T18:18:43;35.00;;;20.67;;
77846;SDS011;67039;48.334;14.294;2023-01-23T18:21:17;35.95;;;20.50;;
77846;SDS011;67039;48.334;14.294;2023-01-23T18:23:43;38.05;;;21.48;;
77846;SDS011;67039;48.334;14.294;2023-01-23T18:36:57;31.40;;;19.52;;
77846;SDS011;67039;48.334;14.294;2023-01-23T18:39:50;50.92;;;32.50;;
77846;SDS011;67039;48.334;14.294;2023-01-23T18:45:08;41.08;;;26.00;;
77846;SDS011;67039;48.334;14.294;2023-01-23T18:50:15;36.13;;;22.02;;
77846;SDS011;67039;48.334;14.294;2023-01-23T18:58:37;30.75;;;20.00;;
77846;SDS011;67039;48.334;14.294;2023-01-23T19:01:26;33.60;;;19.20;;
77846;SDS011;67039;48.334;14.294;2023-01-23T19:04:03;29.73;;;18.90;;
77846;SDS011;67039;48.334;14.294;2023-01-23T19:06:34;33.17;;;19.63;;
77846;SDS011;67039;48.334;14.294;2023-01-23T19:09:01;31.00;;;19.83;;
77846;SDS011;67039;48.334;14.294;2023-01-23T19:26:03;32.17;;;20.00;;
77846;SDS011;67039;48.334;14.294;2023-01-23T19:28:35;30.80;;;20.15;;
77846;SDS011;67039;48.334;14.294;2023-01-23T19:31:08;34.80;;;22.67;;
77846;SDS011;67039;48.334;14.294;2023-01-23T19:33:58;36.67;;;21.85;;
77846;SDS011;67039;48.334;14.294;2023-01-23T19:36:41;34.22;;;20.70;;
77846;SDS011;67039;48.334;14.294;2023-01-23T19:39:11;34.88;;;21.10;;
77846;SDS011;67039;48.334;14.294;2023-01-23T19:41:48;34.97;;;21.63;;
77846;SDS011;67039;48.334;14.294;2023-01-23T19:52:15;33.83;;;20.13;;
77846;SDS011;67039;48.334;14.294;2023-01-23T19:54:41;33.50;;;20.23;;
77846;SDS011;67039;48.334;14.294;2023-01-23T19:57:07;46.72;;;26.98;;
77846;SDS011;67039;48.334;14.294;2023-01-23T19:59:33;33.92;;;20.08;;
77846;SDS011;67039;48.334;14.294;2023-01-23T20:01:59;35.67;;;22.35;;
77846;SDS011;67039;48.334;14.294;2023-01-23T20:04:25;36.65;;;21.85;;
77846;SDS011;67039;48.334;14.294;2023-01-23T20:06:51;34.25;;;20.50;;
77846;SDS011;67039;48.334;14.294;2023-01-23T20:09:18;30.20;;;19.42;;
77846;SDS011;67039;48.334;14.294;2023-01-23T20:11:44;31.33;;;20.25;;
77846;SDS011;67039;48.334;14.294;2023-01-23T20:14:10;34.20;;;21.35;;
77846;SDS011;67039;48.334;14.294;2023-01-23T20:16:36;31.42;;;21.05;;
77846;SDS011;67039;48.334;14.294;2023-01-23T20:19:05;38.42;;;21.20;;
77846;SDS011;67039;48.334;14.294;2023-01-23T20:21:31;31.40;;;19.80;;
77846;SDS011;67039;48.334;14.294;2023-01-23T20:23:57;33.28;;;20.90;;
77846;SDS011;67039;48.334;14.294;2023-01-23T20:26:23;35.50;;;20.27;;
77846;SDS011;67039;48.334;14.294;2023-01-23T20:28:50;32.70;;;20.70;;
77846;SDS011;67039;48.334;14.294;2023-01-23T20:31:19;36.65;;;22.00;;
77846;SDS011;67039;48.334;14.294;2023-01-23T20:33:46;31.33;;;20.50;;
77846;SDS011;67039;48.334;14.294;2023-01-23T20:36:12;30.33;;;18.73;;
77846;SDS011;67039;48.334;14.294;2023-01-23T20:38:39;33.10;;;19.27;;
77846;SDS011;67039;48.334;14.294;2023-01-23T20:41:09;31.27;;;20.52;;
77846;SDS011;67039;48.334;14.294;2023-01-23T20:43:36;30.25;;;20.25;;
77846;SDS011;67039;48.334;14.294;2023-01-23T20:46:06;34.42;;;20.63;;
77846;SDS011;67039;48.334;14.294;2023-01-23T20:48:39;30.55;;;20.10;;
77846;SDS011;67039;48.334;14.294;2023-01-23T20:51:06;33.95;;;19.92;;
77846;SDS011;67039;48.334;14.294;2023-01-23T20:53:33;32.70;;;19.40;;
77846;SDS011;67039;48.334;14.294;2023-01-23T21:03:45;31.17;;;20.08;;
77846;SDS011;67039;48.334;14.294;2023-01-23T21:06:12;28.23;;;18.33;;
77846;SDS011;67039;48.334;14.294;2023-01-23T21:08:39;30.65;;;19.65;;
77846;SDS011;67039;48.334;14.294;2023-01-23T21:11:06;32.00;;;20.30;;
77846;SDS011;67039;48.334;14.294;2023-01-23T21:13:36;32.03;;;19.27;;
77846;SDS011;67039;48.334;14.294;2023-01-23T21:16:12;33.65;;;20.98;;
77846;SDS011;67039;48.334;14.294;2023-01-23T21:18:40;30.02;;;19.17;;
77846;SDS011;67039;48.334;14.294;2023-01-23T21:21:09;30.58;;;19.17;;
77846;SDS011;67039;48.334;14.294;2023-01-23T21:23:37;31.38;;;20.45;;
77846;SDS011;67039;48.334;14.294;2023-01-23T21:26:03;32.33;;;20.30;;
77846;SDS011;67039;48.334;14.294;2023-01-23T21:28:30;31.33;;;20.05;;
77846;SDS011;67039;48.334;14.294;2023-01-23T21:30:57;30.38;;;19.35;;
77846;SDS011;67039;48.334;14.294;2023-01-23T21:33:23;30.75;;;19.90;;
77846;SDS011;67039;48.334;14.294;2023-01-23T21:35:52;30.70;;;19.92;;
77846;SDS011;67039;48.334;14.294;2023-01-23T21:38:19;27.92;;;17.23;;
77846;SDS011;67039;48.334;14.294;2023-01-23T21:40:45;32.00;;;20.20;;
77846;SDS011;67039;48.334;14.294;2023-01-23T21:43:10;31.52;;;20.67;;
77846;SDS011;67039;48.334;14.294;2023-01-23T21:45:36;24.15;;;17.77;;
77846;SDS011;67039;48.334;14.294;2023-01-23T21:48:02;24.77;;;16.85;;
77846;SDS011;67039;48.334;14.294;2023-01-23T21:50:28;26.30;;;17.35;;
77846;SDS011;67039;48.334;14.294;2023-01-23T21:52:54;25.20;;;16.83;;
77846;SDS011;67039;48.334;14.294;2023-01-23T21:55:20;24.92;;;17.08;;
77846;SDS011;67039;48.334;14.294;2023-01-23T21:57:46;28.10;;;17.42;;
77846;SDS011;67039;48.334;14.294;2023-01-23T22:00:11;26.90;;;17.70;;
77846;SDS011;67039;48.334;14.294;2023-01-23T22:02:56;28.10;;;18.08;;
77846;SDS011;67039;48.334;14.294;2023-01-23T22:05:22;28.73;;;18.73;;
77846;SDS011;67039;48.334;14.294;2023-01-23T22:07:47;32.13;;;20.77;;
77846;SDS011;67039;48.334;14.294;2023-01-23T22:10:14;32.58;;;20.92;;
77846;SDS011;67039;48.334;14.294;2023-01-23T22:12:40;28.30;;;17.95;;
77846;SDS011;67039;48.334;14.294;2023-01-23T22:15:06;29.48;;;19.42;;
77846;SDS011;67039;48.334;14.294;2023-01-23T22:17:33;37.85;;;24.70;;
77846;SDS011;67039;48.334;14.294;2023-01-23T22:19:59;34.85;;;22.80;;
77846;SDS011;67039;48.334;14.294;2023-01-23T22:22:24;31.63;;;18.70;;
77846;SDS011;67039;48.334;14.294;2023-01-23T22:24:50;37.60;;;21.40;;
77846;SDS011;67039;48.334;14.294;2023-01-23T22:27:16;41.50;;;25.40;;
77846;SDS011;67039;48.334;14.294;2023-01-23T22:29:42;38.42;;;23.10;;
77846;SDS011;67039;48.334;14.294;2023-01-23T22:32:08;38.08;;;24.80;;
77846;SDS011;67039;48.334;14.294;2023-01-23T22:34:34;32.67;;;20.40;;
77846;SDS011;67039;48.334;14.294;2023-01-23T22:36:59;36.63;;;22.42;;
77846;SDS011;67039;48.334;14.294;2023-01-23T22:39:25;32.97;;;21.70;;
77846;SDS011;67039;48.334;14.294;2023-01-23T22:41:51;33.55;;;21.00;;
77846;SDS011;67039;48.334;14.294;2023-01-23T22:44:17;31.98;;;19.85;;
77846;SDS011;67039;48.334;14.294;2023-01-23T22:46:43;31.88;;;19.92;;
77846;SDS011;67039;48.334;14.294;2023-01-23T22:49:09;27.00;;;18.35;;
77846;SDS011;67039;48.334;14.294;2023-01-23T22:51:35;30.63;;;19.40;;
77846;SDS011;67039;48.334;14.294;2023-01-23T22:54:01;27.63;;;18.13;;
77846;SDS011;67039;48.334;14.294;2023-01-23T22:56:30;33.35;;;18.60;;
77846;SDS011;67039;48.334;14.294;2023-01-23T22:58:56;28.50;;;17.90;;
77846;SDS011;67039;48.334;14.294;2023-01-23T23:01:22;28.88;;;18.13;;
77846;SDS011;67039;48.334;14.294;2023-01-23T23:03:48;40.65;;;28.13;;
77846;SDS011;67039;48.334;14.294;2023-01-23T23:06:14;40.42;;;25.63;;
77846;SDS011;67039;48.334;14.294;2023-01-23T23:08:41;37.97;;;24.38;;
77846;SDS011;67039;48.334;14.294;2023-01-23T23:11:16;27.02;;;17.50;;
77846;SDS011;67039;48.334;14.294;2023-01-23T23:13:44;25.98;;;17.08;;
77846;SDS011;67039;48.334;14.294;2023-01-23T23:16:11;27.45;;;16.88;;
77846;SDS011;67039;48.334;14.294;2023-01-23T23:18:46;24.73;;;17.40;;
77846;SDS011;67039;48.334;14.294;2023-01-23T23:21:14;25.48;;;17.08;;
77846;SDS011;67039;48.334;14.294;2023-01-23T23:23:42;26.95;;;17.17;;
77846;SDS011;67039;48.334;14.294;2023-01-23T23:26:08;23.77;;;16.15;;
77846;SDS011;67039;48.334;14.294;2023-01-23T23:28:35;28.42;;;17.75;;
77846;SDS011;67039;48.334;14.294;2023-01-23T23:31:02;28.60;;;18.90;;
77846;SDS011;67039;48.334;14.294;2023-01-23T23:33:28;26.30;;;16.52;;
77846;SDS011;67039;48.334;14.294;2023-01-23T23:35:54;30.08;;;17.05;;
77846;SDS011;67039;48.334;14.294;2023-01-23T23:38:20;22.50;;;15.73;;
77846;SDS011;67039;48.334;14.294;2023-01-23T23:40:55;25.10;;;16.48;;
77846;SDS011;67039;48.334;14.294;2023-01-23T23:43:22;29.48;;;17.42;;
77846;SDS011;67039;48.334;14.294;2023-01-23T23:45:52;25.10;;;17.20;;
77846;SDS011;67039;48.334;14.294;2023-01-23T23:48:20;23.25;;;17.50;;
77846;SDS011;67039;48.334;14.294;2023-01-23T23:50:46;25.38;;;17.15;;
77846;SDS011;67039;48.334;14.294;2023-01-23T23:53:12;23.38;;;16.00;;
77846;SDS011;67039;48.334;14.294;2023-01-23T23:55:38;27.55;;;18.15;;
77846;SDS011;67039;48.334;14.294;2023-01-23T23:58:04;23.27;;;16.83;;
